createdAt,value
2022-09-11T00:00:00.188Z,15.88
2022-09-11T00:02:27.855Z,15.94
2022-09-11T00:04:55.584Z,15.78
2022-09-11T00:07:23.195Z,15.49
2022-09-11T00:09:50.806Z,15.56
2022-09-11T00:12:18.399Z,15.50
2022-09-11T00:14:46.027Z,15.70
2022-09-11T00:17:15.715Z,15.64
2022-09-11T00:19:43.387Z,15.68
2022-09-11T00:22:11.719Z,15.70
2022-09-11T00:24:39.324Z,15.75
2022-09-11T00:27:06.975Z,15.43
2022-09-11T00:29:34.889Z,15.54
2022-09-11T00:32:02.956Z,15.57
2022-09-11T00:34:30.706Z,15.56
2022-09-11T00:36:58.315Z,15.49
2022-09-11T00:39:26.001Z,15.62
2022-09-11T00:41:53.610Z,15.56
2022-09-11T00:44:23.954Z,15.65
2022-09-11T00:47:01.734Z,15.69
2022-09-11T00:49:37.569Z,15.66
2022-09-11T00:52:21.350Z,15.55
2022-09-11T00:54:58.734Z,15.53
2022-09-11T00:57:34.957Z,15.53
2022-09-11T01:00:05.721Z,15.34
2022-09-11T01:02:38.412Z,15.23
2022-09-11T01:05:07.552Z,15.32
2022-09-11T01:07:37.367Z,15.27
2022-09-11T01:10:07.986Z,15.25
2022-09-11T01:13:04.975Z,15.20
2022-09-11T01:16:38.182Z,15.10
2022-09-11T01:20:00.505Z,14.93
2022-09-11T01:22:42.691Z,15.04
2022-09-11T01:25:50.807Z,14.87
2022-09-11T01:28:37.374Z,15.00
2022-09-11T01:31:12.950Z,15.15
2022-09-11T01:34:14.944Z,14.99
2022-09-11T01:36:55.570Z,14.97
2022-09-11T01:39:40.123Z,15.11
2022-09-11T01:42:17.301Z,15.09
2022-09-11T01:44:54.419Z,14.96
2022-09-11T01:47:23.364Z,15.10
2022-09-11T01:50:09.540Z,14.92
2022-09-11T01:53:00.755Z,14.90
2022-09-11T01:55:41.549Z,14.99
2022-09-11T01:58:24.506Z,14.96
2022-09-11T02:01:07.356Z,15.06
2022-09-11T02:03:51.855Z,14.85
2022-09-11T02:06:39.978Z,14.87
2022-09-11T02:09:15.163Z,14.85
2022-09-11T02:11:46.010Z,14.85
2022-09-11T02:14:49.481Z,14.80
2022-09-11T02:18:02.060Z,14.72
2022-09-11T02:20:31.543Z,14.73
2022-09-11T02:23:00.044Z,14.75
2022-09-11T02:25:27.781Z,14.80
2022-09-11T02:27:55.640Z,14.77
2022-09-11T02:30:23.628Z,14.69
2022-09-11T02:32:51.295Z,14.71
2022-09-11T02:35:19.011Z,14.60
2022-09-11T02:38:36.975Z,14.55
2022-09-11T02:41:22.044Z,14.56
2022-09-11T02:44:42.512Z,14.54
2022-09-11T02:47:49.170Z,14.54
2022-09-11T02:50:33.330Z,14.48
2022-09-11T02:53:40.320Z,14.52
2022-09-11T02:56:16.505Z,14.51
2022-09-11T02:59:05.857Z,14.67
2022-09-11T03:02:02.208Z,14.43
2022-09-11T03:04:31.503Z,14.49
2022-09-11T03:07:00.385Z,14.41
2022-09-11T03:09:28.099Z,14.42
2022-09-11T03:11:55.769Z,14.42
2022-09-11T03:14:23.444Z,14.49
2022-09-11T03:16:51.114Z,14.37
2022-09-11T03:19:20.202Z,14.50
2022-09-11T03:21:47.854Z,14.51
2022-09-11T03:24:17.247Z,14.41
2022-09-11T03:26:45.982Z,14.45
2022-09-11T03:29:14.050Z,14.49
2022-09-11T03:31:42.597Z,14.38
2022-09-11T03:34:11.025Z,14.38
2022-09-11T03:36:38.780Z,14.45
2022-09-11T03:39:06.721Z,14.43
2022-09-11T03:41:34.365Z,14.37
2022-09-11T03:44:02.331Z,14.16
2022-09-11T03:46:29.934Z,14.39
2022-09-11T03:48:57.606Z,14.30
2022-09-11T03:51:26.560Z,14.31
2022-09-11T03:53:54.247Z,14.31
2022-09-11T03:56:21.826Z,14.35
2022-09-11T03:58:49.587Z,14.25
2022-09-11T04:01:19.495Z,14.13
2022-09-11T04:03:47.167Z,14.04
2022-09-11T04:06:14.766Z,14.12
2022-09-11T04:08:42.477Z,14.23
2022-09-11T04:11:12.564Z,14.21
2022-09-11T04:13:44.022Z,14.11
2022-09-11T04:16:17.268Z,14.14
2022-09-11T04:18:47.524Z,14.23
2022-09-11T04:21:18.561Z,14.12
2022-09-11T04:23:53.907Z,14.22
2022-09-11T04:26:25.799Z,14.12
2022-09-11T04:28:53.493Z,14.11
2022-09-11T04:31:22.675Z,14.12
2022-09-11T04:33:52.357Z,14.09
2022-09-11T04:36:24.773Z,14.06
2022-09-11T04:38:58.021Z,14.19
2022-09-11T04:41:26.792Z,14.34
2022-09-11T04:44:05.285Z,14.52
2022-09-11T04:46:34.561Z,14.46
2022-09-11T04:49:05.133Z,14.46
2022-09-11T04:51:36.855Z,14.68
2022-09-11T04:54:05.996Z,14.56
2022-09-11T04:56:39.877Z,14.63
2022-09-11T04:59:16.233Z,14.65
2022-09-11T05:01:44.616Z,14.58
2022-09-11T05:04:14.948Z,14.60
2022-09-11T05:06:45.492Z,14.58
2022-09-11T05:09:31.520Z,14.74
2022-09-11T05:11:59.271Z,14.89
2022-09-11T05:14:29.185Z,14.87
2022-09-11T05:16:56.972Z,15.06
2022-09-11T05:19:25.755Z,15.15
2022-09-11T05:21:53.663Z,15.03
2022-09-11T05:24:21.506Z,15.04
2022-09-11T05:26:49.393Z,15.26
2022-09-11T05:29:17.486Z,15.45
2022-09-11T05:31:46.125Z,15.41
2022-09-11T05:34:13.827Z,15.27
2022-09-11T05:36:41.938Z,15.50
2022-09-11T05:39:10.824Z,15.55
2022-09-11T05:41:38.570Z,15.55
2022-09-11T05:44:06.412Z,15.68
2022-09-11T05:46:34.446Z,15.68
2022-09-11T05:49:02.434Z,15.77
2022-09-11T05:51:33.888Z,15.98
2022-09-11T05:54:01.637Z,16.36
2022-09-11T05:56:30.239Z,16.56
2022-09-11T05:58:58.848Z,16.56
2022-09-11T06:01:28.993Z,16.40
2022-09-11T06:03:58.111Z,16.41
2022-09-11T06:06:26.221Z,16.41
2022-09-11T06:08:53.870Z,16.34
2022-09-11T06:11:22.893Z,16.73
2022-09-11T06:13:51.522Z,18.45
2022-09-11T06:16:25.352Z,17.39
2022-09-11T06:18:54.840Z,18.14
2022-09-11T06:21:27.365Z,19.23
2022-09-11T06:23:55.142Z,19.58
2022-09-11T06:26:27.707Z,21.98
2022-09-11T06:28:56.760Z,22.73
2022-09-11T06:31:27.373Z,19.57
2022-09-11T06:33:55.968Z,20.16
2022-09-11T06:36:27.479Z,20.04
2022-09-11T06:38:58.056Z,18.42
2022-09-11T06:41:28.412Z,18.03
2022-09-11T06:43:56.936Z,18.01
2022-09-11T06:46:26.540Z,18.23
2022-09-11T06:48:55.887Z,18.24
2022-09-11T06:51:24.610Z,18.02
2022-09-11T06:53:58.754Z,18.53
2022-09-11T06:56:27.102Z,18.70
2022-09-11T06:58:55.319Z,18.64
2022-09-11T07:01:24.888Z,18.86
2022-09-11T07:03:56.286Z,18.94
2022-09-11T07:06:30.436Z,19.14
2022-09-11T07:09:02.606Z,18.92
2022-09-11T07:11:35.101Z,18.96
2022-09-11T07:14:06.051Z,18.92
2022-09-11T07:16:35.447Z,20.37
2022-09-11T07:19:04.434Z,22.20
2022-09-11T07:21:35.646Z,20.15
2022-09-11T07:24:04.789Z,19.78
2022-09-11T07:26:33.120Z,19.74
2022-09-11T07:29:01.469Z,20.41
2022-09-11T07:31:33.223Z,20.35
2022-09-11T07:34:04.827Z,20.66
2022-09-11T07:36:35.992Z,20.29
2022-09-11T07:39:05.126Z,20.20
2022-09-11T07:41:35.064Z,20.51
2022-09-11T07:44:04.199Z,20.72
2022-09-11T07:46:33.103Z,20.78
2022-09-11T07:49:03.094Z,20.53
2022-09-11T07:51:35.339Z,20.93
2022-09-11T07:54:05.119Z,20.94
2022-09-11T07:56:36.323Z,21.04
2022-09-11T07:59:09.039Z,20.81
2022-09-11T08:01:37.822Z,21.10
2022-09-11T08:04:11.505Z,21.26
2022-09-11T08:06:41.565Z,21.46
2022-09-11T08:09:15.220Z,21.29
2022-09-11T08:11:48.941Z,20.90
2022-09-11T08:14:17.942Z,20.94
2022-09-11T08:16:46.348Z,20.96
2022-09-11T08:19:21.896Z,21.36
2022-09-11T08:21:53.126Z,20.99
2022-09-11T08:24:24.506Z,21.37
2022-09-11T08:26:53.300Z,21.45
2022-09-11T08:29:22.637Z,21.45
2022-09-11T08:31:51.303Z,21.77
2022-09-11T08:34:22.413Z,21.68
2022-09-11T08:36:52.164Z,21.70
2022-09-11T08:39:20.636Z,21.79
2022-09-11T08:42:09.179Z,22.32
2022-09-11T08:44:56.666Z,22.29
2022-09-11T08:47:35.109Z,21.88
2022-09-11T08:50:21.335Z,22.38
2022-09-11T08:52:50.887Z,22.21
2022-09-11T08:55:39.597Z,22.17
2022-09-11T08:58:59.669Z,21.61
2022-09-11T09:01:56.790Z,21.95
2022-09-11T09:05:01.548Z,22.38
2022-09-11T09:07:48.697Z,22.92
2022-09-11T09:11:14.270Z,22.46
2022-09-11T09:13:55.483Z,21.89
2022-09-11T09:16:45.505Z,22.41
2022-09-11T09:19:29.782Z,21.61
2022-09-11T09:22:23.895Z,21.08
2022-09-11T09:25:00.424Z,21.33
2022-09-11T09:27:39.429Z,22.20
2022-09-11T09:30:23.665Z,22.35
2022-09-11T09:33:26.010Z,22.44
2022-09-11T09:35:55.850Z,22.62
2022-09-11T09:38:30.169Z,22.43
2022-09-11T09:41:59.175Z,22.77
2022-09-11T09:45:21.706Z,23.48
2022-09-11T09:47:51.278Z,23.53
2022-09-11T09:50:44.041Z,22.47
2022-09-11T09:53:41.680Z,22.29
2022-09-11T09:56:17.470Z,22.37
2022-09-11T09:59:15.234Z,22.18
2022-09-11T10:01:54.125Z,22.81
2022-09-11T10:04:27.185Z,23.04
2022-09-11T10:07:20.896Z,22.86
2022-09-11T10:09:57.840Z,22.71
2022-09-11T10:12:31.587Z,23.03
2022-09-11T10:15:04.840Z,22.68
2022-09-11T10:17:38.520Z,23.20
2022-09-11T10:20:18.747Z,23.04
2022-09-11T10:22:48.510Z,23.15
2022-09-11T10:25:30.265Z,23.24
2022-09-11T10:28:19.564Z,23.00
2022-09-11T10:31:00.425Z,23.47
2022-09-11T10:33:37.186Z,23.38
2022-09-11T10:36:10.098Z,23.52
2022-09-11T10:38:45.364Z,23.08
2022-09-11T10:41:15.118Z,23.45
2022-09-11T10:44:00.512Z,23.45
2022-09-11T10:46:42.335Z,22.23
2022-09-11T10:49:21.245Z,22.75
2022-09-11T10:52:08.947Z,22.18
2022-09-11T10:55:04.411Z,22.39
2022-09-11T10:57:53.457Z,22.57
2022-09-11T11:00:28.049Z,22.55
2022-09-11T11:03:18.530Z,23.10
2022-09-11T11:06:33.898Z,22.94
2022-09-11T11:09:41.498Z,22.89
2022-09-11T11:12:42.266Z,23.37
2022-09-11T11:15:59.672Z,23.11
2022-09-11T11:18:46.770Z,23.02
2022-09-11T11:21:42.112Z,22.61
2022-09-11T11:24:50.170Z,22.54
2022-09-11T11:27:34.064Z,22.41
2022-09-11T11:31:03.098Z,22.25
2022-09-11T11:34:17.007Z,21.88
2022-09-11T11:37:07.304Z,22.04
2022-09-11T11:40:24.505Z,22.05
2022-09-11T11:43:17.625Z,23.74
2022-09-11T11:46:02.877Z,23.54
2022-09-11T11:48:56.173Z,22.61
2022-09-11T11:51:30.779Z,22.40
2022-09-11T11:54:20.456Z,22.22
2022-09-11T11:57:14.632Z,21.73
2022-09-11T12:00:11.065Z,22.24
2022-09-11T12:03:12.407Z,22.26
2022-09-11T12:05:40.943Z,21.67
2022-09-11T12:08:17.048Z,21.72
2022-09-11T12:10:59.451Z,21.76
2022-09-11T12:13:37.393Z,22.40
2022-09-11T12:16:35.046Z,22.28
2022-09-11T12:19:21.761Z,22.00
2022-09-11T12:22:04.317Z,22.01
2022-09-11T12:24:59.049Z,22.05
2022-09-11T12:27:33.841Z,22.34
2022-09-11T12:30:16.281Z,22.12
2022-09-11T12:32:49.847Z,22.00
2022-09-11T12:35:49.514Z,22.04
2022-09-11T12:38:39.731Z,21.92
2022-09-11T12:41:28.814Z,22.02
2022-09-11T12:43:59.200Z,21.90
2022-09-11T12:46:28.491Z,21.76
2022-09-11T12:49:22.298Z,22.19
2022-09-11T12:51:59.652Z,22.28
2022-09-11T12:54:39.127Z,21.94
2022-09-11T12:57:19.377Z,22.03
2022-09-11T12:59:59.782Z,22.06
2022-09-11T13:02:42.615Z,22.03
2022-09-11T13:05:34.682Z,22.82
2022-09-11T13:08:32.348Z,22.52
2022-09-11T13:11:44.029Z,23.11
2022-09-11T13:14:28.626Z,22.44
2022-09-11T13:17:31.013Z,22.56
2022-09-11T13:20:07.925Z,22.96
2022-09-11T13:22:38.709Z,23.26
2022-09-11T13:25:22.349Z,22.79
2022-09-11T13:28:01.416Z,22.67
2022-09-11T13:30:31.149Z,23.26
2022-09-11T13:33:09.471Z,23.43
2022-09-11T13:35:46.829Z,23.53
2022-09-11T13:38:35.828Z,23.32
2022-09-11T13:41:20.189Z,23.57
2022-09-11T13:43:58.367Z,23.79
2022-09-11T13:46:32.335Z,23.08
2022-09-11T13:49:13.102Z,23.70
2022-09-11T13:51:48.839Z,24.12
2022-09-11T13:54:35.155Z,23.86
2022-09-11T13:57:03.385Z,23.60
2022-09-11T13:59:48.287Z,23.18
2022-09-11T14:02:45.489Z,22.89
2022-09-11T14:05:31.559Z,22.92
2022-09-11T14:08:04.870Z,23.02
2022-09-11T14:10:47.463Z,23.61
2022-09-11T14:13:51.517Z,23.62
2022-09-11T14:16:33.470Z,23.11
2022-09-11T14:19:32.847Z,23.55
2022-09-11T14:22:26.264Z,23.90
2022-09-11T14:25:20.913Z,23.19
2022-09-11T14:27:53.260Z,23.70
2022-09-11T14:30:40.794Z,23.49
2022-09-11T14:33:23.301Z,23.32
2022-09-11T14:36:07.455Z,23.05
2022-09-11T14:38:38.460Z,23.47
2022-09-11T14:41:08.483Z,23.38
2022-09-11T14:43:41.325Z,23.50
2022-09-11T14:46:10.735Z,23.34
2022-09-11T14:48:43.195Z,22.75
2022-09-11T14:51:13.682Z,22.55
2022-09-11T14:53:43.677Z,22.23
2022-09-11T14:56:13.227Z,21.95
2022-09-11T14:58:42.577Z,21.92
2022-09-11T15:01:14.059Z,21.63
2022-09-11T15:03:42.581Z,21.54
2022-09-11T15:06:20.639Z,21.40
2022-09-11T15:08:49.148Z,21.26
2022-09-11T15:11:18.881Z,21.21
2022-09-11T15:14:10.848Z,20.97
2022-09-11T15:16:36.122Z,21.00
2022-09-11T15:19:04.715Z,20.99
2022-09-11T15:21:36.889Z,20.65
2022-09-11T15:24:07.061Z,20.47
2022-09-11T15:26:37.422Z,20.06
2022-09-11T15:29:10.094Z,19.73
2022-09-11T15:31:39.614Z,19.82
2022-09-11T15:34:07.988Z,19.92
2022-09-11T15:36:41.705Z,20.03
2022-09-11T15:39:16.761Z,20.00
2022-09-11T15:41:45.514Z,20.11
2022-09-11T15:44:24.663Z,20.24
2022-09-11T15:46:55.450Z,20.32
2022-09-11T15:49:25.583Z,20.16
2022-09-11T15:51:59.777Z,20.04
2022-09-11T15:54:28.688Z,20.20
2022-09-11T15:56:57.230Z,19.99
2022-09-11T15:59:25.862Z,20.13
2022-09-11T16:01:54.610Z,20.28
2022-09-11T16:04:28.792Z,20.18
2022-09-11T16:06:57.352Z,20.13
2022-09-11T16:09:30.724Z,20.12
2022-09-11T16:12:01.818Z,20.00
2022-09-11T16:14:38.099Z,19.88
2022-09-11T16:17:08.407Z,19.86
2022-09-11T16:19:38.789Z,19.79
2022-09-11T16:22:08.954Z,19.78
2022-09-11T16:24:37.916Z,19.76
2022-09-11T16:27:10.364Z,19.57
2022-09-11T16:32:29.632Z,19.62
2022-09-11T16:34:59.741Z,19.52
2022-09-11T16:37:31.161Z,19.48
2022-09-11T16:40:02.730Z,19.45
2022-09-11T16:42:33.165Z,19.35
2022-09-11T16:45:01.543Z,19.21
2022-09-11T16:47:30.592Z,19.27
2022-09-11T16:50:07.720Z,18.97
2022-09-11T16:52:37.333Z,19.06
2022-09-11T16:55:09.846Z,19.02
2022-09-11T16:57:39.781Z,18.96
2022-09-11T17:00:10.385Z,18.94
2022-09-11T17:02:39.240Z,18.89
2022-09-11T17:05:09.338Z,18.89
2022-09-11T17:07:37.844Z,18.72
2022-09-11T17:10:07.231Z,18.60
2022-09-11T17:12:35.626Z,18.62
2022-09-11T17:15:05.246Z,18.46
2022-09-11T17:17:37.189Z,18.40
2022-09-11T17:20:09.434Z,18.43
2022-09-11T17:22:37.535Z,18.53
2022-09-11T17:25:07.020Z,18.29
2022-09-11T17:27:36.491Z,18.36
2022-09-11T17:30:06.452Z,18.27
2022-09-11T17:32:34.823Z,18.24
2022-09-11T17:35:02.508Z,18.30
2022-09-11T17:37:33.185Z,18.31
2022-09-11T17:40:02.348Z,18.28
2022-09-11T17:42:30.419Z,18.23
2022-09-11T17:44:58.829Z,18.09
2022-09-11T17:47:32.959Z,18.21
2022-09-11T17:50:05.298Z,18.10
2022-09-11T17:52:35.151Z,17.93
2022-09-11T17:55:06.018Z,18.08
2022-09-11T17:57:34.225Z,18.04
2022-09-11T18:00:02.774Z,18.08
2022-09-11T18:02:30.407Z,17.95
2022-09-11T18:05:02.621Z,17.99
2022-09-11T18:07:31.022Z,17.96
2022-09-11T18:09:58.932Z,17.88
2022-09-11T18:12:28.393Z,18.01
2022-09-11T18:14:57.149Z,18.00
2022-09-11T18:17:27.633Z,17.96
2022-09-11T18:19:55.876Z,17.97
2022-09-11T18:22:23.577Z,17.88
2022-09-11T18:24:51.198Z,17.74
2022-09-11T18:27:19.848Z,17.76
2022-09-11T18:29:50.072Z,17.78
2022-09-11T18:32:19.849Z,17.76
2022-09-11T18:34:48.648Z,17.64
2022-09-11T18:37:17.550Z,17.50
2022-09-11T18:39:47.057Z,17.62
2022-09-11T18:42:14.728Z,17.57
2022-09-11T18:44:43.021Z,17.53
2022-09-11T18:47:10.783Z,17.44
2022-09-11T18:49:38.549Z,17.21
2022-09-11T18:52:07.353Z,17.25
2022-09-11T18:54:35.097Z,17.32
2022-09-11T18:57:03.608Z,17.37
2022-09-11T18:59:31.228Z,17.52
2022-09-11T19:02:00.270Z,17.52
2022-09-11T19:04:29.720Z,17.50
2022-09-11T19:06:57.329Z,17.48
2022-09-11T19:09:24.979Z,17.53
2022-09-11T19:11:54.880Z,17.44
2022-09-11T19:14:22.526Z,17.34
2022-09-11T19:16:50.197Z,17.27
2022-09-11T19:19:17.946Z,17.31
2022-09-11T19:21:45.760Z,17.39
2022-09-11T19:24:13.340Z,17.25
2022-09-11T19:26:43.714Z,17.20
2022-09-11T19:29:15.931Z,17.14
2022-09-11T19:31:46.747Z,17.24
2022-09-11T19:34:17.178Z,17.19
2022-09-11T19:36:45.340Z,17.17
2022-09-11T19:39:13.147Z,17.00
2022-09-11T19:41:42.665Z,17.13
2022-09-11T19:44:13.993Z,17.11
2022-09-11T19:46:43.226Z,16.98
2022-09-11T19:49:11.663Z,16.82
2022-09-11T19:51:43.079Z,16.88
2022-09-11T19:54:14.513Z,16.91
2022-09-11T19:56:44.568Z,16.96
2022-09-11T19:59:14.488Z,16.82
2022-09-11T20:01:43.237Z,16.83
2022-09-11T20:04:12.529Z,16.92
2022-09-11T20:06:40.842Z,16.88
2022-09-11T20:11:57.119Z,16.66
2022-09-11T20:14:24.909Z,16.87
2022-09-11T20:16:52.579Z,16.67
2022-09-11T20:19:20.717Z,16.74
2022-09-11T20:21:48.338Z,16.76
2022-09-11T20:24:16.489Z,16.60
2022-09-11T20:26:45.899Z,16.52
2022-09-11T20:29:16.106Z,16.61
2022-09-11T20:31:47.926Z,16.50
2022-09-11T20:34:22.138Z,16.44
2022-09-11T20:36:49.823Z,16.41
2022-09-11T20:39:17.948Z,16.48
2022-09-11T20:41:45.874Z,16.31
2022-09-11T20:44:13.536Z,16.33
2022-09-11T20:46:43.700Z,16.14
2022-09-11T20:49:12.265Z,16.24
2022-09-11T20:51:41.789Z,16.22
2022-09-11T20:54:11.187Z,16.14
2022-09-11T20:56:39.089Z,16.04
2022-09-11T20:59:07.039Z,16.10
2022-09-11T21:01:35.391Z,16.07
2022-09-11T21:04:04.958Z,16.04
2022-09-11T21:06:36.048Z,15.99
2022-09-11T21:09:11.578Z,16.14
2022-09-11T21:11:43.936Z,16.09
2022-09-11T21:14:14.908Z,16.04
2022-09-11T21:16:44.336Z,16.06
2022-09-11T21:19:11.995Z,16.00
2022-09-11T21:21:40.666Z,16.00
2022-09-11T21:24:14.056Z,15.99
2022-09-11T21:26:43.564Z,16.05
2022-09-11T21:29:13.807Z,16.15
2022-09-11T21:31:41.580Z,15.98
2022-09-11T21:34:10.895Z,15.98
2022-09-11T21:36:38.738Z,15.87
2022-09-11T21:39:06.817Z,15.96
2022-09-11T21:41:34.722Z,15.87
2022-09-11T21:44:02.767Z,15.94
2022-09-11T21:46:30.457Z,15.97
2022-09-11T21:48:58.172Z,15.83
2022-09-11T21:51:25.913Z,15.84
2022-09-11T21:53:59.118Z,15.78
2022-09-11T21:56:31.886Z,15.70
2022-09-11T21:59:01.116Z,15.72
2022-09-11T22:01:29.806Z,15.78
2022-09-11T22:04:00.357Z,15.70
2022-09-11T22:06:30.124Z,15.65
2022-09-11T22:08:58.103Z,15.80
2022-09-11T22:11:26.536Z,15.70
2022-09-11T22:13:54.679Z,15.67
2022-09-11T22:16:25.973Z,15.57
2022-09-11T22:18:55.288Z,15.50
2022-09-11T22:21:23.014Z,15.58
2022-09-11T22:23:50.898Z,15.71
2022-09-11T22:26:23.997Z,15.63
2022-09-11T22:28:52.682Z,15.57
2022-09-11T22:31:24.917Z,15.55
2022-09-11T22:33:54.059Z,15.50
2022-09-11T22:36:28.038Z,15.44
2022-09-11T22:38:59.166Z,15.50
2022-09-11T22:41:28.239Z,15.42
2022-09-11T22:43:56.265Z,15.53
2022-09-11T22:46:27.499Z,15.31
2022-09-11T22:48:56.120Z,15.30
2022-09-11T22:51:23.894Z,15.35
2022-09-11T22:53:52.021Z,15.39
2022-09-11T22:56:19.712Z,15.36
2022-09-11T22:58:47.633Z,15.19
2022-09-11T23:01:22.156Z,15.21
2022-09-11T23:03:54.715Z,15.25
2022-09-11T23:06:44.525Z,15.29
2022-09-11T23:09:16.992Z,15.34
2022-09-11T23:11:46.824Z,15.46
2022-09-11T23:14:15.133Z,15.47
2022-09-11T23:16:43.986Z,15.40
2022-09-11T23:19:15.064Z,15.53
2022-09-11T23:21:43.768Z,15.48
2022-09-11T23:24:14.728Z,15.52
2022-09-11T23:26:45.444Z,15.57
2022-09-11T23:29:14.103Z,15.47
2022-09-11T23:31:44.438Z,15.43
2022-09-11T23:34:17.193Z,15.54
2022-09-11T23:36:48.331Z,15.53
2022-09-11T23:39:16.279Z,15.50
2022-09-11T23:41:43.900Z,15.46
2022-09-11T23:44:11.942Z,15.53
2022-09-11T23:46:39.569Z,15.48
2022-09-11T23:49:07.571Z,15.42
2022-09-11T23:51:35.267Z,15.29
2022-09-11T23:54:02.966Z,15.35
2022-09-11T23:56:30.623Z,15.34
2022-09-11T23:58:58.342Z,15.31
